Time;durP1;ratioP1;P1;durP2;ratioP2;P2;SDS_P1;SDS_P2;PMS_P1;PMS_P2;Temp;Humidity;BMP_temperature;BMP_pressure;BME280_temperature;BME280_humidity;BME280_pressure;Samples;Min_cycle;Max_cycle;Signal;HPM_P1;HPM_P2
2024/02/19 00:01:17;;;;;;;53.33;47.67;;;;;;;;;;4180020;28;20055;-66
2024/02/19 00:03:19;;;;;;;46.00;42.20;;;;;;;;;;4164166;28;20400;-67
2024/02/19 00:05:22;;;;;;;43.75;40.22;;;;;;;;;;4164233;28;20418;-67
2024/02/19 00:07:24;;;;;;;43.90;40.67;;;;;;;;;;4164371;28;20397;-67
2024/02/19 00:09:26;;;;;;;37.03;34.95;;;;;;;;;;4164231;28;20458;-67
2024/02/19 00:11:29;;;;;;;39.25;37.08;;;;;;;;;;4164070;28;20068;-67
2024/02/19 00:13:31;;;;;;;39.53;37.25;;;;;;;;;;4164094;28;20137;-66
2024/02/19 00:15:33;;;;;;;41.75;39.35;;;;;;;;;;4164277;28;20052;-67
2024/02/19 00:17:34;;;;;;;44.30;41.20;;;;;;;;;;4164124;28;20049;-67
2024/02/19 00:19:38;;;;;;;42.88;39.90;;;;;;;;;;4163656;28;20049;-67
2024/02/19 00:21:40;;;;;;;42.42;39.42;;;;;;;;;;4162641;28;20048;-67
2024/02/19 00:23:42;;;;;;;43.45;40.60;;;;;;;;;;4162497;28;20068;-67
2024/02/19 00:25:43;;;;;;;41.97;39.05;;;;;;;;;;4162368;28;20091;-67
2024/02/19 00:27:45;;;;;;;42.05;39.28;;;;;;;;;;4163548;28;20125;-67
2024/02/19 00:29:47;;;;;;;44.85;41.83;;;;;;;;;;4164005;28;20163;-67
2024/02/19 00:31:48;;;;;;;43.72;40.75;;;;;;;;;;4163655;28;20046;-67
2024/02/19 00:33:50;;;;;;;42.37;39.60;;;;;;;;;;4171810;28;20029;-67
2024/02/19 00:35:53;;;;;;;42.55;39.80;;;;;;;;;;4180271;28;20287;-67
2024/02/19 00:37:55;;;;;;;45.60;42.40;;;;;;;;;;4180330;28;20432;-67
2024/02/19 00:39:57;;;;;;;42.13;39.50;;;;;;;;;;4180326;28;20079;-67
2024/02/19 00:41:59;;;;;;;42.38;39.63;;;;;;;;;;4180327;28;20040;-67
2024/02/19 00:44:00;;;;;;;45.63;42.30;;;;;;;;;;4180121;28;20041;-67
2024/02/19 00:46:02;;;;;;;43.78;41.05;;;;;;;;;;4180273;28;20045;-67
2024/02/19 00:48:04;;;;;;;44.67;41.87;;;;;;;;;;4180272;28;20049;-67
2024/02/19 00:50:06;;;;;;;43.72;40.50;;;;;;;;;;4180492;28;20041;-67
2024/02/19 00:52:08;;;;;;;46.35;42.78;;;;;;;;;;4180189;28;20106;-67
2024/02/19 00:54:10;;;;;;;46.85;43.60;;;;;;;;;;4180387;28;20052;-67
2024/02/19 00:56:11;;;;;;;47.05;43.90;;;;;;;;;;4180438;28;20047;-66
2024/02/19 00:58:13;;;;;;;42.60;39.63;;;;;;;;;;4174270;28;20148;-67
2024/02/19 01:00:16;;;;;;;44.33;41.47;;;;;;;;;;4163818;28;20048;-66
2024/02/19 01:02:18;;;;;;;47.33;43.90;;;;;;;;;;4163630;28;20522;-67
2024/02/19 01:04:20;;;;;;;48.15;45.10;;;;;;;;;;4163675;28;20073;-67
2024/02/19 01:06:23;;;;;;;41.78;39.20;;;;;;;;;;4163743;28;20044;-63
2024/02/19 01:08:25;;;;;;;42.90;39.97;;;;;;;;;;4164867;28;20386;-63
2024/02/19 01:10:26;;;;;;;45.25;42.38;;;;;;;;;;4166768;28;20216;-63
2024/02/19 01:12:28;;;;;;;43.72;41.03;;;;;;;;;;4166708;28;20045;-64
2024/02/19 01:14:29;;;;;;;41.80;38.63;;;;;;;;;;4166681;28;20092;-63
2024/02/19 01:16:32;;;;;;;38.97;36.80;;;;;;;;;;4166743;28;20083;-67
2024/02/19 01:18:34;;;;;;;40.70;38.33;;;;;;;;;;4166629;28;20137;-67
2024/02/19 01:20:36;;;;;;;39.55;37.55;;;;;;;;;;4166654;28;20064;-67
2024/02/19 01:22:38;;;;;;;39.65;37.58;;;;;;;;;;4166506;28;20038;-67
2024/02/19 01:24:40;;;;;;;41.17;39.08;;;;;;;;;;4166628;28;20065;-66
2024/02/19 01:26:42;;;;;;;40.63;38.35;;;;;;;;;;4166503;28;20044;-67
2024/02/19 01:28:44;;;;;;;44.10;41.60;;;;;;;;;;4166549;28;20120;-67
2024/02/19 01:30:45;;;;;;;42.00;39.42;;;;;;;;;;4180287;28;20061;-67
2024/02/19 01:32:47;;;;;;;41.47;38.85;;;;;;;;;;4182871;28;20056;-67
2024/02/19 01:34:49;;;;;;;44.88;41.60;;;;;;;;;;4183190;28;20128;-67
2024/02/19 01:36:51;;;;;;;47.40;44.03;;;;;;;;;;4182978;28;20041;-67
2024/02/19 01:38:52;;;;;;;43.75;40.47;;;;;;;;;;4182630;28;20305;-67
2024/02/19 01:40:54;;;;;;;44.70;41.80;;;;;;;;;;4182802;28;20386;-67
2024/02/19 01:43:01;;;;;;;44.28;41.63;;;;;;;;;;4182771;28;20041;-67
2024/02/19 01:45:05;;;;;;;39.95;37.45;;;;;;;;;;4181295;28;20036;-66
2024/02/19 01:47:07;;;;;;;47.88;44.58;;;;;;;;;;4182614;28;20056;-67
2024/02/19 01:49:10;;;;;;;44.13;41.13;;;;;;;;;;4182716;28;20052;-67
2024/02/19 01:51:13;;;;;;;41.70;39.30;;;;;;;;;;4182652;28;20144;-67
2024/02/19 01:53:16;;;;;;;41.22;38.85;;;;;;;;;;4182681;28;20445;-67
2024/02/19 01:55:18;;;;;;;41.55;39.10;;;;;;;;;;4169529;28;20111;-67
2024/02/19 01:57:20;;;;;;;41.55;39.25;;;;;;;;;;4166086;28;20041;-67
2024/02/19 01:59:22;;;;;;;42.43;40.10;;;;;;;;;;4165239;28;20103;-67
2024/02/19 02:03:26;;;;;;;42.85;40.25;;;;;;;;;;4169253;28;20049;-56
2024/02/19 02:05:28;;;;;;;40.53;38.10;;;;;;;;;;4165851;28;20048;-57
2024/02/19 02:07:30;;;;;;;40.10;37.83;;;;;;;;;;4165914;28;20459;-57
2024/02/19 02:09:31;;;;;;;41.35;39.15;;;;;;;;;;4193033;28;20458;-56
2024/02/19 02:11:33;;;;;;;40.60;38.57;;;;;;;;;;4182486;28;20124;-56
2024/02/19 02:13:35;;;;;;;40.33;38.08;;;;;;;;;;4182395;28;20079;-57
2024/02/19 02:15:37;;;;;;;39.93;37.67;;;;;;;;;;4181925;28;20041;-56
2024/02/19 02:17:40;;;;;;;41.55;39.40;;;;;;;;;;4181167;28;20289;-56
2024/02/19 02:19:42;;;;;;;38.17;36.05;;;;;;;;;;4180352;28;20111;-58
2024/02/19 02:21:44;;;;;;;42.85;39.90;;;;;;;;;;4180667;28;20061;-56
2024/02/19 02:23:46;;;;;;;43.15;40.40;;;;;;;;;;4179149;28;20124;-57
2024/02/19 02:25:48;;;;;;;41.63;38.97;;;;;;;;;;4179328;28;20478;-57
2024/02/19 02:27:50;;;;;;;42.55;40.15;;;;;;;;;;4180543;28;20075;-56
2024/02/19 02:29:51;;;;;;;43.10;40.00;;;;;;;;;;4179229;28;20049;-58
2024/02/19 02:31:53;;;;;;;44.05;41.53;;;;;;;;;;4180611;28;20072;-57
2024/02/19 02:33:55;;;;;;;41.53;39.00;;;;;;;;;;4180752;28;20068;-57
2024/02/19 02:35:57;;;;;;;40.50;37.95;;;;;;;;;;4179604;28;20041;-57
2024/02/19 02:37:59;;;;;;;42.17;39.78;;;;;;;;;;4182005;28;20123;-57
2024/02/19 02:40:01;;;;;;;46.38;43.25;;;;;;;;;;4180915;28;20642;-56
2024/02/19 02:42:05;;;;;;;44.55;41.95;;;;;;;;;;4181908;28;20052;-57
2024/02/19 02:44:07;;;;;;;47.05;43.40;;;;;;;;;;4181986;28;20051;-56
2024/02/19 02:46:09;;;;;;;49.95;46.13;;;;;;;;;;4181883;28;20040;-57
2024/02/19 02:48:10;;;;;;;44.97;42.17;;;;;;;;;;4181757;28;20047;-58
2024/02/19 02:50:12;;;;;;;43.23;40.10;;;;;;;;;;4181741;28;20033;-57
2024/02/19 02:52:14;;;;;;;43.40;40.60;;;;;;;;;;4181659;28;20049;-57
2024/02/19 02:54:15;;;;;;;47.15;43.88;;;;;;;;;;4181764;28;20519;-57
2024/02/19 02:56:20;;;;;;;44.92;42.17;;;;;;;;;;4181707;28;20072;-56
2024/02/19 02:58:22;;;;;;;48.47;44.92;;;;;;;;;;4175918;28;20037;-57
2024/02/19 03:00:23;;;;;;;42.67;40.07;;;;;;;;;;4171528;28;20470;-56
2024/02/19 03:02:25;;;;;;;43.13;40.50;;;;;;;;;;4172564;28;20307;-56
2024/02/19 03:04:27;;;;;;;43.00;40.13;;;;;;;;;;4181494;28;20052;-58
2024/02/19 03:06:29;;;;;;;40.63;38.33;;;;;;;;;;4168853;28;20323;-56
2024/02/19 03:08:30;;;;;;;46.13;43.43;;;;;;;;;;4163582;28;20045;-56
2024/02/19 03:10:32;;;;;;;40.67;38.27;;;;;;;;;;4165064;28;20037;-57
2024/02/19 03:12:33;;;;;;;42.25;39.58;;;;;;;;;;4168734;28;20053;-56
2024/02/19 03:14:35;;;;;;;42.65;40.33;;;;;;;;;;4181374;28;20067;-57
2024/02/19 03:16:37;;;;;;;42.75;40.35;;;;;;;;;;4181574;28;20051;-56
2024/02/19 03:18:38;;;;;;;44.05;41.45;;;;;;;;;;4181425;28;20049;-56
2024/02/19 03:20:40;;;;;;;40.60;38.30;;;;;;;;;;4181564;28;20559;-57
2024/02/19 03:22:42;;;;;;;37.42;35.55;;;;;;;;;;4181117;28;20044;-57
2024/02/19 03:24:43;;;;;;;44.15;41.28;;;;;;;;;;4181234;28;20049;-56
2024/02/19 03:26:45;;;;;;;42.90;40.20;;;;;;;;;;4165878;28;20033;-56
2024/02/19 03:28:47;;;;;;;43.35;40.85;;;;;;;;;;4164620;28;20779;-57
2024/02/19 03:30:48;;;;;;;40.15;37.92;;;;;;;;;;4164619;28;20120;-57
2024/02/19 03:32:50;;;;;;;39.03;36.63;;;;;;;;;;4163407;28;20076;-57
2024/02/19 03:34:52;;;;;;;41.85;39.45;;;;;;;;;;4179806;28;20045;-56
2024/02/19 03:36:53;;;;;;;38.90;36.67;;;;;;;;;;4164683;28;20045;-56
2024/02/19 03:38:55;;;;;;;40.17;37.63;;;;;;;;;;4164576;28;20076;-57
2024/02/19 03:40:56;;;;;;;40.83;38.55;;;;;;;;;;4164456;28;20319;-56
2024/02/19 03:42:58;;;;;;;42.15;39.08;;;;;;;;;;4164777;28;20042;-57
2024/02/19 03:45:01;;;;;;;42.23;39.93;;;;;;;;;;4164524;28;20065;-56
2024/02/19 03:47:03;;;;;;;43.85;41.13;;;;;;;;;;4169838;28;20041;-56
2024/02/19 03:49:04;;;;;;;41.97;39.38;;;;;;;;;;4164556;28;20049;-57
2024/02/19 03:51:06;;;;;;;43.13;40.40;;;;;;;;;;4164482;28;20461;-57
2024/02/19 03:53:08;;;;;;;44.40;41.42;;;;;;;;;;4164428;28;20471;-56
2024/02/19 03:55:09;;;;;;;45.67;42.22;;;;;;;;;;4179414;28;20033;-56
2024/02/19 03:57:11;;;;;;;43.83;41.30;;;;;;;;;;4180852;28;20045;-56
2024/02/19 03:59:13;;;;;;;45.72;42.50;;;;;;;;;;4181031;28;20162;-57
2024/02/19 04:01:14;;;;;;;42.03;39.72;;;;;;;;;;4180681;28;20045;-57
2024/02/19 04:03:16;;;;;;;41.33;38.95;;;;;;;;;;4180547;28;20052;-57
2024/02/19 04:05:18;;;;;;;42.22;39.67;;;;;;;;;;4180734;28;20068;-57
2024/02/19 04:07:20;;;;;;;42.78;40.38;;;;;;;;;;4180693;28;20522;-57
2024/02/19 04:09:22;;;;;;;43.13;40.30;;;;;;;;;;4180687;28;20112;-56
2024/02/19 04:11:23;;;;;;;43.38;40.70;;;;;;;;;;4179740;28;20045;-56
2024/02/19 04:13:25;;;;;;;42.93;40.37;;;;;;;;;;4180696;28;20068;-56
2024/02/19 04:15:27;;;;;;;37.70;35.40;;;;;;;;;;4180552;28;20511;-56
2024/02/19 04:17:28;;;;;;;40.45;37.85;;;;;;;;;;4180662;28;20446;-57
2024/02/19 04:19:30;;;;;;;42.80;40.07;;;;;;;;;;4180588;28;20057;-57
2024/02/19 04:21:32;;;;;;;46.88;44.03;;;;;;;;;;4180542;28;20451;-57
2024/02/19 04:23:33;;;;;;;41.47;38.83;;;;;;;;;;4180599;28;20118;-57
2024/02/19 04:25:35;;;;;;;41.83;38.90;;;;;;;;;;4180687;28;20045;-57
2024/02/19 04:27:37;;;;;;;45.00;41.97;;;;;;;;;;4180634;28;20049;-61
2024/02/19 04:29:39;;;;;;;42.15;39.78;;;;;;;;;;4180582;28;20049;-61
2024/02/19 04:31:41;;;;;;;40.97;38.77;;;;;;;;;;4180600;28;20128;-61
2024/02/19 04:33:43;;;;;;;42.70;40.00;;;;;;;;;;4180506;28;20041;-61
2024/02/19 04:35:45;;;;;;;43.78;41.08;;;;;;;;;;4180435;28;20049;-61
2024/02/19 04:37:47;;;;;;;44.78;41.45;;;;;;;;;;4180430;28;20532;-61
2024/02/19 04:39:49;;;;;;;43.95;41.35;;;;;;;;;;4180429;28;20087;-61
2024/02/19 04:41:51;;;;;;;41.60;39.08;;;;;;;;;;4180465;28;20048;-61
2024/02/19 04:43:53;;;;;;;41.38;38.70;;;;;;;;;;4183709;28;20045;-61
2024/02/19 04:45:54;;;;;;;43.70;41.00;;;;;;;;;;4183780;28;20071;-61
2024/02/19 04:47:56;;;;;;;47.97;44.97;;;;;;;;;;4183831;28;20151;-61
2024/02/19 04:49:57;;;;;;;44.00;41.22;;;;;;;;;;4183656;28;20436;-61
2024/02/19 04:52:00;;;;;;;39.70;37.30;;;;;;;;;;4183591;28;20037;-61
2024/02/19 04:54:03;;;;;;;43.08;40.53;;;;;;;;;;4183440;28;20275;-61
2024/02/19 04:56:04;;;;;;;40.15;37.72;;;;;;;;;;4183549;28;20504;-61
2024/02/19 04:58:06;;;;;;;37.05;34.95;;;;;;;;;;4183487;28;20095;-61
2024/02/19 05:00:08;;;;;;;40.17;37.40;;;;;;;;;;4183397;28;20106;-61
2024/02/19 05:02:10;;;;;;;41.38;37.47;;;;;;;;;;4182011;28;20291;-61
2024/02/19 05:04:11;;;;;;;44.35;41.03;;;;;;;;;;4183462;28;20052;-61
2024/02/19 05:06:13;;;;;;;43.70;40.73;;;;;;;;;;4183442;28;20044;-61
2024/02/19 05:08:15;;;;;;;43.97;41.00;;;;;;;;;;4183245;28;20041;-61
2024/02/19 05:10:16;;;;;;;45.47;42.78;;;;;;;;;;4179513;28;20037;-61
2024/02/19 05:12:18;;;;;;;47.03;43.90;;;;;;;;;;4183094;28;20059;-61
2024/02/19 05:14:20;;;;;;;43.92;40.90;;;;;;;;;;4180703;28;20390;-61
2024/02/19 05:16:21;;;;;;;49.78;45.70;;;;;;;;;;4178419;28;20408;-61
2024/02/19 05:18:23;;;;;;;47.90;43.77;;;;;;;;;;4183164;28;20110;-61
2024/02/19 05:20:25;;;;;;;47.45;43.60;;;;;;;;;;4183017;28;20298;-61
2024/02/19 05:22:27;;;;;;;47.97;44.25;;;;;;;;;;4183219;28;20131;-61
2024/02/19 05:24:28;;;;;;;45.65;42.53;;;;;;;;;;4182998;28;20045;-61
2024/02/19 05:26:30;;;;;;;44.40;41.28;;;;;;;;;;4181801;28;20080;-61
2024/02/19 05:28:32;;;;;;;41.67;38.50;;;;;;;;;;4183067;28;20091;-61
2024/02/19 05:30:33;;;;;;;44.38;41.55;;;;;;;;;;4182896;28;20069;-61
2024/02/19 05:32:36;;;;;;;45.47;42.22;;;;;;;;;;4182894;28;20040;-61
2024/02/19 05:34:38;;;;;;;43.80;41.10;;;;;;;;;;4182987;28;20040;-61
2024/02/19 05:36:41;;;;;;;48.05;44.97;;;;;;;;;;4175936;28;20465;-61
2024/02/19 05:38:44;;;;;;;46.13;42.72;;;;;;;;;;4182708;28;20045;-58
2024/02/19 05:40:46;;;;;;;47.17;43.58;;;;;;;;;;4182864;28;20041;-57
2024/02/19 05:42:48;;;;;;;44.88;42.08;;;;;;;;;;4182900;28;20044;-59
2024/02/19 05:44:49;;;;;;;48.08;44.50;;;;;;;;;;4182360;28;20051;-57
2024/02/19 05:46:51;;;;;;;47.65;44.33;;;;;;;;;;4179640;28;20041;-57
2024/02/19 05:48:53;;;;;;;42.88;39.65;;;;;;;;;;4166049;28;20068;-57
2024/02/19 05:50:54;;;;;;;41.78;39.08;;;;;;;;;;4166275;28;20076;-57
2024/02/19 05:52:56;;;;;;;44.00;41.38;;;;;;;;;;4166134;28;20037;-57
2024/02/19 05:54:58;;;;;;;45.15;42.50;;;;;;;;;;4165060;28;20049;-57
2024/02/19 05:57:00;;;;;;;45.65;42.78;;;;;;;;;;4166190;28;20095;-56
2024/02/19 05:59:02;;;;;;;42.00;39.33;;;;;;;;;;4166228;28;20045;-57
2024/02/19 06:01:03;;;;;;;41.05;38.30;;;;;;;;;;4166093;28;20124;-57
2024/02/19 06:03:05;;;;;;;45.43;42.47;;;;;;;;;;4166028;28;20056;-56
2024/02/19 06:05:07;;;;;;;43.53;41.08;;;;;;;;;;4165910;28;20045;-56
2024/02/19 06:07:09;;;;;;;44.92;42.03;;;;;;;;;;4165951;28;20053;-57
2024/02/19 06:09:11;;;;;;;42.65;40.15;;;;;;;;;;4166004;28;20124;-57
2024/02/19 06:11:13;;;;;;;44.28;41.45;;;;;;;;;;4172249;28;20041;-57
2024/02/19 06:13:15;;;;;;;43.33;41.07;;;;;;;;;;4181925;28;20115;-57
2024/02/19 06:15:17;;;;;;;45.10;42.38;;;;;;;;;;4181953;28;20279;-57
2024/02/19 06:17:18;;;;;;;47.25;44.40;;;;;;;;;;4180871;28;20447;-57
2024/02/19 06:19:20;;;;;;;42.87;40.27;;;;;;;;;;4168613;28;20095;-58
2024/02/19 06:21:22;;;;;;;42.28;39.78;;;;;;;;;;4181868;28;20136;-57
2024/02/19 06:23:23;;;;;;;43.75;40.90;;;;;;;;;;4182161;28;20041;-57
2024/02/19 06:25:25;;;;;;;45.63;42.78;;;;;;;;;;4182166;28;20048;-58
2024/02/19 06:27:27;;;;;;;49.65;45.65;;;;;;;;;;4182189;28;20045;-57
2024/02/19 06:29:28;;;;;;;57.13;51.47;;;;;;;;;;4177906;28;20128;-62
2024/02/19 06:31:30;;;;;;;49.72;45.65;;;;;;;;;;4175467;28;20508;-62
2024/02/19 06:33:31;;;;;;;54.85;50.70;;;;;;;;;;4180086;28;20044;-62
2024/02/19 06:35:33;;;;;;;53.13;48.92;;;;;;;;;;4181085;28;20037;-61
2024/02/19 06:37:35;;;;;;;50.28;45.88;;;;;;;;;;4179123;28;20064;-62
2024/02/19 06:39:39;;;;;;;47.08;44.03;;;;;;;;;;4180584;28;20091;-61
2024/02/19 06:41:44;;;;;;;43.38;40.83;;;;;;;;;;4177695;28;20068;-62
2024/02/19 06:43:46;;;;;;;43.08;40.50;;;;;;;;;;4176481;28;20041;-61
2024/02/19 06:45:47;;;;;;;45.03;41.75;;;;;;;;;;4175994;28;20351;-62
2024/02/19 06:47:49;;;;;;;50.03;45.65;;;;;;;;;;4176799;28;20045;-62
2024/02/19 06:49:51;;;;;;;51.20;47.17;;;;;;;;;;4177066;28;20119;-62
2024/02/19 06:51:53;;;;;;;50.60;46.33;;;;;;;;;;4188076;28;20049;-62
2024/02/19 06:53:54;;;;;;;49.22;45.08;;;;;;;;;;4180793;28;20123;-62
2024/02/19 06:55:56;;;;;;;49.05;45.65;;;;;;;;;;4179675;28;20049;-61
2024/02/19 06:57:57;;;;;;;49.88;46.42;;;;;;;;;;4180732;28;20085;-62
2024/02/19 06:59:59;;;;;;;49.70;45.75;;;;;;;;;;4179294;28;20100;-62
2024/02/19 07:02:01;;;;;;;48.83;45.17;;;;;;;;;;4180312;28;20072;-61
2024/02/19 07:04:09;;;;;;;46.83;43.63;;;;;;;;;;4178715;28;20520;-62
2024/02/19 07:06:11;;;;;;;46.13;42.90;;;;;;;;;;4180765;28;20420;-61
2024/02/19 07:08:14;;;;;;;43.73;40.73;;;;;;;;;;4176575;28;20049;-62
2024/02/19 07:10:16;;;;;;;45.38;42.15;;;;;;;;;;4178808;28;20124;-62
2024/02/19 07:12:18;;;;;;;45.03;42.17;;;;;;;;;;4178399;28;20432;-62
2024/02/19 07:14:19;;;;;;;65.00;58.30;;;;;;;;;;4180567;28;20059;-62
2024/02/19 07:16:24;;;;;;;58.75;53.80;;;;;;;;;;4179750;28;20110;-62
2024/02/19 07:18:25;;;;;;;53.20;48.78;;;;;;;;;;4180535;28;20045;-61
2024/02/19 07:20:27;;;;;;;55.15;50.50;;;;;;;;;;4179571;28;20128;-62
2024/02/19 07:22:29;;;;;;;54.30;49.97;;;;;;;;;;4178284;28;20068;-62
2024/02/19 07:24:32;;;;;;;55.47;50.97;;;;;;;;;;4172825;28;20037;-62
2024/02/19 07:26:34;;;;;;;50.65;46.55;;;;;;;;;;4176212;28;20353;-62
2024/02/19 07:28:36;;;;;;;49.55;44.58;;;;;;;;;;4175855;28;20068;-62
2024/02/19 07:30:38;;;;;;;55.42;51.00;;;;;;;;;;4179398;28;20083;-62
2024/02/19 07:32:39;;;;;;;54.13;50.08;;;;;;;;;;4178639;28;20037;-62
2024/02/19 07:34:41;;;;;;;49.20;45.08;;;;;;;;;;4181045;28;20060;-62
2024/02/19 07:36:45;;;;;;;53.72;49.03;;;;;;;;;;4181311;28;20549;-62
2024/02/19 07:38:47;;;;;;;52.85;48.08;;;;;;;;;;4179626;28;20120;-62
2024/02/19 07:40:49;;;;;;;54.50;50.35;;;;;;;;;;4173652;28;20505;-62
2024/02/19 07:42:50;;;;;;;57.33;51.97;;;;;;;;;;4174584;28;20033;-62
2024/02/19 07:44:53;;;;;;;56.90;51.75;;;;;;;;;;4181067;28;20049;-61
2024/02/19 07:46:55;;;;;;;52.70;47.97;;;;;;;;;;4177680;28;20042;-62
2024/02/19 07:48:56;;;;;;;54.75;49.15;;;;;;;;;;4179571;28;20064;-62
2024/02/19 07:50:58;;;;;;;56.22;51.55;;;;;;;;;;4179544;28;20087;-62
2024/02/19 07:53:00;;;;;;;50.28;46.17;;;;;;;;;;4177026;28;20583;-62
2024/02/19 07:55:01;;;;;;;50.20;46.10;;;;;;;;;;4179662;28;20562;-62
2024/02/19 07:57:03;;;;;;;45.95;42.40;;;;;;;;;;4179348;28;20060;-63
2024/02/19 07:59:05;;;;;;;48.25;44.60;;;;;;;;;;4180718;28;20052;-64
2024/02/19 08:01:07;;;;;;;49.53;45.53;;;;;;;;;;4175242;28;20041;-64
2024/02/19 08:03:08;;;;;;;45.78;42.60;;;;;;;;;;4171271;28;20129;-64
2024/02/19 08:05:10;;;;;;;42.78;39.88;;;;;;;;;;4178671;28;20054;-64
2024/02/19 08:07:12;;;;;;;42.90;40.20;;;;;;;;;;4179615;28;20037;-62
2024/02/19 08:09:14;;;;;;;46.40;42.88;;;;;;;;;;4179338;28;20107;-62
2024/02/19 08:11:17;;;;;;;48.35;44.63;;;;;;;;;;4177192;28;20069;-62
2024/02/19 08:13:20;;;;;;;48.55;45.17;;;;;;;;;;4178919;28;20049;-62
2024/02/19 08:15:22;;;;;;;51.25;46.92;;;;;;;;;;4178325;28;20041;-62
2024/02/19 08:17:23;;;;;;;47.40;43.97;;;;;;;;;;4178164;28;20037;-62
2024/02/19 08:19:25;;;;;;;44.07;40.70;;;;;;;;;;4178477;28;20033;-62
2024/02/19 08:21:27;;;;;;;47.00;43.47;;;;;;;;;;4178784;28;20658;-62
2024/02/19 08:23:28;;;;;;;44.00;40.35;;;;;;;;;;4171198;28;20778;-62
2024/02/19 08:25:30;;;;;;;46.42;42.95;;;;;;;;;;4180384;28;20044;-62
2024/02/19 08:27:32;;;;;;;47.58;44.33;;;;;;;;;;4179299;28;20040;-62
2024/02/19 08:29:34;;;;;;;49.40;45.50;;;;;;;;;;4179242;28;20492;-62
2024/02/19 08:31:35;;;;;;;47.72;44.35;;;;;;;;;;4177442;28;20155;-62
2024/02/19 08:33:37;;;;;;;51.00;46.72;;;;;;;;;;4180025;28;20045;-62
2024/02/19 08:35:38;;;;;;;55.67;50.28;;;;;;;;;;4176082;28;20169;-62
2024/02/19 08:37:41;;;;;;;53.83;49.00;;;;;;;;;;4173418;28;20049;-63
2024/02/19 08:39:43;;;;;;;44.35;40.45;;;;;;;;;;4177577;28;20131;-62
2024/02/19 08:41:45;;;;;;;44.08;41.22;;;;;;;;;;4180454;28;20048;-62
2024/02/19 08:43:46;;;;;;;41.22;38.00;;;;;;;;;;4179551;28;20133;-62
2024/02/19 08:45:48;;;;;;;38.55;35.80;;;;;;;;;;4176952;28;20447;-62
2024/02/19 08:47:50;;;;;;;34.27;32.37;;;;;;;;;;4172747;28;20060;-62
2024/02/19 08:49:51;;;;;;;33.72;32.05;;;;;;;;;;4178280;28;20658;-62
2024/02/19 08:51:53;;;;;;;33.13;31.50;;;;;;;;;;4173499;28;20469;-62
2024/02/19 08:53:55;;;;;;;33.07;31.93;;;;;;;;;;4178531;28;20065;-62
2024/02/19 08:56:00;;;;;;;31.88;30.63;;;;;;;;;;4176833;28;20115;-62
2024/02/19 08:58:02;;;;;;;32.05;30.75;;;;;;;;;;4178567;28;20037;-62
2024/02/19 09:00:04;;;;;;;31.33;30.10;;;;;;;;;;4174216;28;20218;-62
2024/02/19 09:02:06;;;;;;;34.00;32.50;;;;;;;;;;4177930;28;20508;-62
2024/02/19 09:04:08;;;;;;;33.90;32.40;;;;;;;;;;4176261;28;20509;-62
2024/02/19 09:06:10;;;;;;;35.70;33.70;;;;;;;;;;4176717;28;20041;-62
2024/02/19 09:08:12;;;;;;;35.97;34.40;;;;;;;;;;4176654;28;20048;-62
2024/02/19 09:10:14;;;;;;;38.97;36.40;;;;;;;;;;4178267;28;20291;-61
2024/02/19 09:12:16;;;;;;;35.72;33.55;;;;;;;;;;4176273;28;20111;-61
2024/02/19 09:14:18;;;;;;;35.23;33.27;;;;;;;;;;4177944;28;20114;-61
2024/02/19 09:16:19;;;;;;;33.80;32.20;;;;;;;;;;4177521;28;20043;-62
2024/02/19 09:18:22;;;;;;;36.80;34.95;;;;;;;;;;4174451;28;20794;-63
2024/02/19 09:20:24;;;;;;;34.67;32.58;;;;;;;;;;4170390;28;20045;-63
2024/02/19 09:22:27;;;;;;;37.43;35.33;;;;;;;;;;4179273;28;20052;-63
2024/02/19 09:24:29;;;;;;;37.75;35.70;;;;;;;;;;4179128;28;20551;-63
2024/02/19 09:26:30;;;;;;;35.38;33.42;;;;;;;;;;4177353;28;20160;-63
2024/02/19 09:28:32;;;;;;;36.55;34.42;;;;;;;;;;4178692;28;20422;-63
2024/02/19 09:30:34;;;;;;;34.63;32.93;;;;;;;;;;4179456;28;20116;-63
2024/02/19 09:32:35;;;;;;;34.38;32.85;;;;;;;;;;4175272;28;20041;-63
2024/02/19 09:34:37;;;;;;;34.63;32.72;;;;;;;;;;4180746;28;20086;-63
2024/02/19 09:36:39;;;;;;;35.38;33.47;;;;;;;;;;4179563;28;20040;-63
2024/02/19 09:38:40;;;;;;;35.13;33.43;;;;;;;;;;4172576;28;20051;-63
2024/02/19 09:40:44;;;;;;;35.38;33.38;;;;;;;;;;4173988;28;20404;-63
2024/02/19 09:42:47;;;;;;;34.13;32.35;;;;;;;;;;4176493;28;20029;-63
2024/02/19 09:44:49;;;;;;;35.72;33.55;;;;;;;;;;4177103;28;20048;-63
2024/02/19 09:46:54;;;;;;;34.38;32.38;;;;;;;;;;4181319;28;20562;-63
2024/02/19 09:48:59;;;;;;;35.03;33.00;;;;;;;;;;4182635;28;20377;-64
2024/02/19 09:51:03;;;;;;;32.28;30.52;;;;;;;;;;4180313;28;20527;-63
2024/02/19 09:53:09;;;;;;;32.17;30.05;;;;;;;;;;4179443;28;20083;-63
2024/02/19 09:55:11;;;;;;;31.67;29.88;;;;;;;;;;4195956;28;20489;-63
2024/02/19 09:57:12;;;;;;;31.15;29.38;;;;;;;;;;4181043;28;20075;-63
2024/02/19 09:59:15;;;;;;;30.23;28.38;;;;;;;;;;4180109;28;20052;-63
2024/02/19 10:01:20;;;;;;;29.98;27.95;;;;;;;;;;4181699;28;20052;-63
2024/02/19 10:03:22;;;;;;;28.10;26.05;;;;;;;;;;4177776;28;20092;-63
2024/02/19 10:05:24;;;;;;;;;;;;;;;;;;4176971;28;20048;-63
2024/02/19 10:07:26;;;;;;;27.15;25.60;;;;;;;;;;4182598;28;19921;-64
2024/02/19 10:09:27;;;;;;;26.83;25.05;;;;;;;;;;4179573;28;20037;-63
2024/02/19 10:11:29;;;;;;;26.83;25.20;;;;;;;;;;4175889;28;20045;-63
2024/02/19 10:13:33;;;;;;;26.43;24.70;;;;;;;;;;4179067;28;20103;-63
2024/02/19 10:15:35;;;;;;;26.80;25.08;;;;;;;;;;4182111;28;20342;-64
2024/02/19 10:17:37;;;;;;;22.80;21.42;;;;;;;;;;4182215;28;20434;-63
2024/02/19 10:19:39;;;;;;;25.27;23.97;;;;;;;;;;4182310;28;20401;-63
2024/02/19 10:21:42;;;;;;;24.83;23.42;;;;;;;;;;4182127;28;20327;-63
2024/02/19 10:23:46;;;;;;;27.15;25.52;;;;;;;;;;4182077;28;20037;-64
2024/02/19 10:25:48;;;;;;;25.95;24.50;;;;;;;;;;4182181;28;20045;-63
2024/02/19 10:27:49;;;;;;;28.93;27.23;;;;;;;;;;4182331;28;20049;-62
2024/02/19 10:29:51;;;;;;;24.63;23.08;;;;;;;;;;4182404;28;20045;-63
2024/02/19 10:31:52;;;;;;;24.95;23.70;;;;;;;;;;4182134;28;20095;-62
2024/02/19 10:33:54;;;;;;;26.40;24.57;;;;;;;;;;4182083;28;20045;-62
2024/02/19 10:35:58;;;;;;;23.27;21.98;;;;;;;;;;4182016;28;20079;-62
2024/02/19 10:38:00;;;;;;;20.65;19.63;;;;;;;;;;4179361;28;20044;-62
2024/02/19 10:40:06;;;;;;;22.17;20.75;;;;;;;;;;4171719;28;20052;-62
2024/02/19 10:42:08;;;;;;;20.42;19.40;;;;;;;;;;4180368;28;20047;-62
2024/02/19 10:44:10;;;;;;;20.83;19.73;;;;;;;;;;4177619;28;20068;-62
2024/02/19 10:46:13;;;;;;;21.10;19.95;;;;;;;;;;4173673;28;20049;-62
2024/02/19 10:48:15;;;;;;;21.25;19.98;;;;;;;;;;4165716;28;20041;-62
2024/02/19 10:50:20;;;;;;;20.13;19.08;;;;;;;;;;4168936;28;20088;-62
2024/02/19 10:52:24;;;;;;;19.13;17.90;;;;;;;;;;4176288;28;20083;-63
2024/02/19 10:54:26;;;;;;;18.20;17.17;;;;;;;;;;4172364;28;20409;-62
2024/02/19 10:56:35;;;;;;;16.02;15.20;;;;;;;;;;4173521;28;20069;-62
2024/02/19 10:58:37;;;;;;;18.88;17.88;;;;;;;;;;4176281;28;20404;-62
2024/02/19 11:00:38;;;;;;;14.93;14.05;;;;;;;;;;4175235;28;20188;-62
2024/02/19 11:02:40;;;;;;;13.98;13.20;;;;;;;;;;4179709;28;20124;-62
2024/02/19 11:04:42;;;;;;;14.73;13.83;;;;;;;;;;4181445;28;20045;-62
2024/02/19 11:06:54;;;;;;;13.77;12.90;;;;;;;;;;4179653;28;20288;-62
2024/02/19 11:08:56;;;;;;;14.35;13.57;;;;;;;;;;4169436;28;20287;-62
2024/02/19 11:11:02;;;;;;;11.02;10.63;;;;;;;;;;4179324;28;20075;-62
2024/02/19 11:13:07;;;;;;;12.88;12.35;;;;;;;;;;4175717;28;20044;-61
2024/02/19 11:15:14;;;;;;;13.25;12.75;;;;;;;;;;4171896;28;20091;-62
2024/02/19 11:17:16;;;;;;;16.65;15.57;;;;;;;;;;4175315;28;20039;-61
2024/02/19 11:19:18;;;;;;;13.95;13.23;;;;;;;;;;4176740;28;20427;-62
2024/02/19 11:21:20;;;;;;;13.48;12.95;;;;;;;;;;4173599;28;20037;-64
2024/02/19 11:23:22;;;;;;;15.03;14.43;;;;;;;;;;4177074;28;20052;-63
2024/02/19 11:25:24;;;;;;;14.65;14.15;;;;;;;;;;4179566;28;20315;-63
2024/02/19 11:27:26;;;;;;;15.77;15.10;;;;;;;;;;4179289;28;20037;-63
2024/02/19 11:29:28;;;;;;;14.88;14.18;;;;;;;;;;4181166;28;20049;-63
2024/02/19 11:31:44;;;;;;;17.45;16.42;;;;;;;;;;4181460;28;20037;-63
2024/02/19 11:33:51;;;;;;;14.60;13.90;;;;;;;;;;4163830;28;20543;-63
2024/02/19 11:35:55;;;;;;;15.85;14.82;;;;;;;;;;4173831;28;20454;-63
2024/02/19 11:37:57;;;;;;;14.45;13.82;;;;;;;;;;4181045;28;20060;-60
2024/02/19 11:39:58;;;;;;;13.52;12.82;;;;;;;;;;4180397;28;20045;-61
2024/02/19 11:42:04;;;;;;;13.95;13.35;;;;;;;;;;4178269;28;20032;-60
2024/02/19 11:44:06;;;;;;;14.05;13.55;;;;;;;;;;4168800;28;20045;-60
2024/02/19 11:46:07;;;;;;;13.35;12.73;;;;;;;;;;4164415;28;20098;-60
2024/02/19 11:48:09;;;;;;;11.90;11.10;;;;;;;;;;4164847;28;20052;-63
2024/02/19 11:50:15;;;;;;;11.57;10.75;;;;;;;;;;4171108;28;20033;-63
2024/02/19 11:52:17;;;;;;;10.50;10.10;;;;;;;;;;4180176;28;20045;-63
2024/02/19 11:54:21;;;;;;;10.85;10.07;;;;;;;;;;4178139;28;20056;-63